sensor_id;sensor_type;location;lat;lon;timestamp;pressure;altitude;pressure_sealevel;temperature;humidity
2397;BME280;1209;48.410;9.054;2023-04-23T00:00:47;95643.09;;;14.10;100.00
2397;BME280;1209;48.410;9.054;2023-04-23T00:03:13;95641.91;;;14.06;100.00
2397;BME280;1209;48.410;9.054;2023-04-23T00:05:39;95645.38;;;14.00;100.00
2397;BME280;1209;48.410;9.054;2023-04-23T00:08:07;95647.19;;;14.00;100.00
2397;BME280;1209;48.410;9.054;2023-04-23T00:10:34;95636.53;;;13.95;100.00
2397;BME280;1209;48.410;9.054;2023-04-23T00:12:59;95644.41;;;13.95;100.00
2397;BME280;1209;48.410;9.054;2023-04-23T00:15:26;95648.41;;;13.97;100.00
2397;BME280;1209;48.410;9.054;2023-04-23T00:17:51;95649.06;;;13.93;100.00
2397;BME280;1209;48.410;9.054;2023-04-23T00:20:16;95644.44;;;13.88;100.00
2397;BME280;1209;48.410;9.054;2023-04-23T00:22:42;95649.25;;;13.91;100.00
2397;BME280;1209;48.410;9.054;2023-04-23T00:25:09;95647.22;;;13.93;100.00
2397;BME280;1209;48.410;9.054;2023-04-23T00:27:35;95644.84;;;13.85;100.00
2397;BME280;1209;48.410;9.054;2023-04-23T00:30:01;95646.28;;;13.81;100.00
2397;BME280;1209;48.410;9.054;2023-04-23T00:32:27;95648.91;;;13.81;100.00
2397;BME280;1209;48.410;9.054;2023-04-23T00:34:52;95647.69;;;13.83;100.00
2397;BME280;1209;48.410;9.054;2023-04-23T00:37:19;95648.31;;;13.79;100.00
2397;BME280;1209;48.410;9.054;2023-04-23T00:39:44;95651.34;;;13.82;100.00
2397;BME280;1209;48.410;9.054;2023-04-23T00:42:10;95657.41;;;13.76;100.00
2397;BME280;1209;48.410;9.054;2023-04-23T00:44:38;95643.69;;;13.74;100.00
2397;BME280;1209;48.410;9.054;2023-04-23T00:47:05;95647.13;;;13.68;100.00
2397;BME280;1209;48.410;9.054;2023-04-23T00:49:35;95659.47;;;13.61;100.00
2397;BME280;1209;48.410;9.054;2023-04-23T00:52:01;95666.16;;;13.57;100.00
2397;BME280;1209;48.410;9.054;2023-04-23T00:54:27;95667.41;;;13.48;100.00
2397;BME280;1209;48.410;9.054;2023-04-23T00:56:52;95657.31;;;13.45;100.00
2397;BME280;1209;48.410;9.054;2023-04-23T00:59:19;95666.22;;;13.44;100.00
2397;BME280;1209;48.410;9.054;2023-04-23T01:01:45;95669.47;;;13.39;100.00
2397;BME280;1209;48.410;9.054;2023-04-23T01:04:19;95664.44;;;13.31;100.00
2397;BME280;1209;48.410;9.054;2023-04-23T01:06:47;95668.88;;;13.31;100.00
2397;BME280;1209;48.410;9.054;2023-04-23T01:09:14;95666.88;;;13.26;100.00
2397;BME280;1209;48.410;9.054;2023-04-23T01:11:41;95660.41;;;13.22;100.00
2397;BME280;1209;48.410;9.054;2023-04-23T01:14:10;95669.28;;;13.14;100.00
2397;BME280;1209;48.410;9.054;2023-04-23T01:16:36;95660.44;;;13.02;100.00
2397;BME280;1209;48.410;9.054;2023-04-23T01:19:06;95662.03;;;13.03;100.00
2397;BME280;1209;48.410;9.054;2023-04-23T01:21:33;95668.69;;;12.99;100.00
2397;BME280;1209;48.410;9.054;2023-04-23T01:23:58;95670.72;;;12.97;100.00
2397;BME280;1209;48.410;9.054;2023-04-23T01:26:24;95671.13;;;12.87;100.00
2397;BME280;1209;48.410;9.054;2023-04-23T01:28:50;95674.56;;;12.88;100.00
2397;BME280;1209;48.410;9.054;2023-04-23T01:31:16;95674.16;;;12.84;100.00
2397;BME280;1209;48.410;9.054;2023-04-23T01:33:43;95677.00;;;12.83;100.00
2397;BME280;1209;48.410;9.054;2023-04-23T01:36:09;95664.28;;;12.73;100.00
2397;BME280;1209;48.410;9.054;2023-04-23T01:38:36;95668.50;;;12.68;100.00
2397;BME280;1209;48.410;9.054;2023-04-23T01:41:02;95674.75;;;12.67;100.00
2397;BME280;1209;48.410;9.054;2023-04-23T01:43:28;95674.97;;;12.58;100.00
2397;BME280;1209;48.410;9.054;2023-04-23T01:45:53;95673.75;;;12.54;100.00
2397;BME280;1209;48.410;9.054;2023-04-23T01:48:19;95672.56;;;12.50;100.00
2397;BME280;1209;48.410;9.054;2023-04-23T01:50:45;95677.59;;;12.52;100.00
2397;BME280;1209;48.410;9.054;2023-04-23T01:53:11;95682.22;;;12.50;100.00
2397;BME280;1209;48.410;9.054;2023-04-23T01:55:41;95676.78;;;12.45;100.00
2397;BME280;1209;48.410;9.054;2023-04-23T01:58:07;95681.00;;;12.39;100.00
2397;BME280;1209;48.410;9.054;2023-04-23T02:00:32;95684.03;;;12.36;100.00
2397;BME280;1209;48.410;9.054;2023-04-23T02:02:57;95682.63;;;12.34;100.00
2397;BME280;1209;48.410;9.054;2023-04-23T02:05:24;95687.25;;;12.38;100.00
2397;BME280;1209;48.410;9.054;2023-04-23T02:07:50;95690.88;;;12.37;100.00
2397;BME280;1209;48.410;9.054;2023-04-23T02:10:16;95690.22;;;12.28;100.00
2397;BME280;1209;48.410;9.054;2023-04-23T02:12:43;95688.19;;;12.17;100.00
2397;BME280;1209;48.410;9.054;2023-04-23T02:15:10;95694.44;;;12.23;100.00
2397;BME280;1209;48.410;9.054;2023-04-23T02:17:35;95691.63;;;12.18;100.00
2397;BME280;1209;48.410;9.054;2023-04-23T02:20:01;95699.88;;;12.15;100.00
2397;BME280;1209;48.410;9.054;2023-04-23T02:22:27;95691.63;;;12.11;100.00
2397;BME280;1209;48.410;9.054;2023-04-23T02:24:53;95696.84;;;12.11;100.00
2397;BME280;1209;48.410;9.054;2023-04-23T02:27:19;95701.47;;;12.03;100.00
2397;BME280;1209;48.410;9.054;2023-04-23T02:29:45;95704.09;;;12.03;100.00
2397;BME280;1209;48.410;9.054;2023-04-23T02:32:11;95702.47;;;12.02;100.00
2397;BME280;1209;48.410;9.054;2023-04-23T02:34:36;95693.22;;;12.06;100.00
2397;BME280;1209;48.410;9.054;2023-04-23T02:37:02;95699.44;;;11.98;100.00
2397;BME280;1209;48.410;9.054;2023-04-23T02:39:29;95702.88;;;11.98;100.00
2397;BME280;1209;48.410;9.054;2023-04-23T02:41:54;95696.00;;;11.97;100.00
2397;BME280;1209;48.410;9.054;2023-04-23T02:44:20;95698.22;;;11.87;100.00
2397;BME280;1209;48.410;9.054;2023-04-23T02:46:46;95690.38;;;11.94;100.00
2397;BME280;1209;48.410;9.054;2023-04-23T02:49:11;95682.31;;;11.89;100.00
2397;BME280;1209;48.410;9.054;2023-04-23T02:51:37;95688.88;;;11.78;100.00
2397;BME280;1209;48.410;9.054;2023-04-23T02:54:02;95682.41;;;11.74;100.00
2397;BME280;1209;48.410;9.054;2023-04-23T02:56:28;95682.19;;;11.69;100.00
2397;BME280;1209;48.410;9.054;2023-04-23T02:58:53;95675.94;;;11.63;100.00
2397;BME280;1209;48.410;9.054;2023-04-23T03:01:19;95676.34;;;11.67;100.00
2397;BME280;1209;48.410;9.054;2023-04-23T03:03:44;95676.22;;;11.82;100.00
2397;BME280;1209;48.410;9.054;2023-04-23T03:06:09;95679.38;;;11.71;100.00
2397;BME280;1209;48.410;9.054;2023-04-23T03:08:35;95677.34;;;11.66;100.00
2397;BME280;1209;48.410;9.054;2023-04-23T03:11:00;95680.56;;;11.61;100.00
2397;BME280;1209;48.410;9.054;2023-04-23T03:13:26;95664.06;;;11.61;100.00
2397;BME280;1209;48.410;9.054;2023-04-23T03:15:52;95664.28;;;11.66;100.00
2397;BME280;1209;48.410;9.054;2023-04-23T03:18:18;95669.06;;;11.56;100.00
2397;BME280;1209;48.410;9.054;2023-04-23T03:20:44;95666.66;;;11.54;100.00
2397;BME280;1209;48.410;9.054;2023-04-23T03:23:09;95668.25;;;11.55;100.00
2397;BME280;1209;48.410;9.054;2023-04-23T03:25:35;95670.28;;;11.60;100.00
2397;BME280;1209;48.410;9.054;2023-04-23T03:28:00;95670.28;;;11.60;100.00
2397;BME280;1209;48.410;9.054;2023-04-23T03:30:26;95673.25;;;11.44;100.00
2397;BME280;1209;48.410;9.054;2023-04-23T03:32:54;95673.50;;;11.55;100.00
2397;BME280;1209;48.410;9.054;2023-04-23T03:35:21;95664.84;;;11.55;100.00
2397;BME280;1209;48.410;9.054;2023-04-23T03:37:46;95671.47;;;11.51;100.00
2397;BME280;1209;48.410;9.054;2023-04-23T03:40:11;95668.88;;;11.57;100.00
2397;BME280;1209;48.410;9.054;2023-04-23T03:42:37;95666.47;;;11.56;100.00
2397;BME280;1209;48.410;9.054;2023-04-23T03:45:02;95667.66;;;11.53;100.00
2397;BME280;1209;48.410;9.054;2023-04-23T03:47:28;95669.63;;;11.45;100.00
2397;BME280;1209;48.410;9.054;2023-04-23T03:49:54;95679.06;;;11.39;100.00
2397;BME280;1209;48.410;9.054;2023-04-23T03:52:19;95682.69;;;11.45;100.00
2397;BME280;1209;48.410;9.054;2023-04-23T03:54:45;95679.91;;;11.46;100.00
2397;BME280;1209;48.410;9.054;2023-04-23T03:57:10;95689.34;;;11.47;100.00
2397;BME280;1209;48.410;9.054;2023-04-23T03:59:38;95685.13;;;11.46;100.00
2397;BME280;1209;48.410;9.054;2023-04-23T04:02:04;95690.94;;;11.42;100.00
2397;BME280;1209;48.410;9.054;2023-04-23T04:04:31;95689.13;;;11.42;100.00
2397;BME280;1209;48.410;9.054;2023-04-23T04:06:56;95691.94;;;11.41;100.00
2397;BME280;1209;48.410;9.054;2023-04-23T04:09:22;95702.81;;;11.44;100.00
2397;BME280;1209;48.410;9.054;2023-04-23T04:11:48;95703.66;;;11.51;100.00
2397;BME280;1209;48.410;9.054;2023-04-23T04:14:13;95706.22;;;11.45;100.00
2397;BME280;1209;48.410;9.054;2023-04-23T04:16:39;95694.78;;;11.46;100.00
2397;BME280;1209;48.410;9.054;2023-04-23T04:19:05;95693.34;;;11.43;100.00
2397;BME280;1209;48.410;9.054;2023-04-23T04:21:31;95697.97;;;11.41;100.00
2397;BME280;1209;48.410;9.054;2023-04-23T04:23:58;95702.53;;;11.32;100.00
2397;BME280;1209;48.410;9.054;2023-04-23T04:26:26;95690.84;;;11.28;100.00
2397;BME280;1209;48.410;9.054;2023-04-23T04:28:51;95697.50;;;11.31;100.00
2397;BME280;1209;48.410;9.054;2023-04-23T04:31:17;95694.88;;;11.31;100.00
2397;BME280;1209;48.410;9.054;2023-04-23T04:33:46;95698.47;;;11.23;100.00
2397;BME280;1209;48.410;9.054;2023-04-23T04:36:12;95688.34;;;11.14;100.00
2397;BME280;1209;48.410;9.054;2023-04-23T04:38:37;95693.78;;;11.12;100.00
2397;BME280;1209;48.410;9.054;2023-04-23T04:41:03;95692.38;;;11.16;100.00
2397;BME280;1209;48.410;9.054;2023-04-23T04:43:29;95675.25;;;11.07;100.00
2397;BME280;1209;48.410;9.054;2023-04-23T04:45:55;95686.50;;;11.08;100.00
2397;BME280;1209;48.410;9.054;2023-04-23T04:48:23;95684.69;;;11.08;100.00
2397;BME280;1209;48.410;9.054;2023-04-23T04:50:48;95692.78;;;11.13;100.00
2397;BME280;1209;48.410;9.054;2023-04-23T04:53:14;95689.53;;;11.11;100.00
2397;BME280;1209;48.410;9.054;2023-04-23T04:55:39;95695.00;;;11.16;100.00
2397;BME280;1209;48.410;9.054;2023-04-23T04:58:05;95694.63;;;11.19;100.00
2397;BME280;1209;48.410;9.054;2023-04-23T05:00:30;95703.69;;;11.23;100.00
2397;BME280;1209;48.410;9.054;2023-04-23T05:02:57;95708.91;;;11.23;100.00
2397;BME280;1209;48.410;9.054;2023-04-23T05:05:23;95704.69;;;11.22;100.00
2397;BME280;1209;48.410;9.054;2023-04-23T05:07:49;95718.19;;;11.26;100.00
2397;BME280;1209;48.410;9.054;2023-04-23T05:10:14;95710.34;;;11.26;100.00
2397;BME280;1209;48.410;9.054;2023-04-23T05:12:41;95700.22;;;11.16;100.00
2397;BME280;1209;48.410;9.054;2023-04-23T05:15:08;95703.25;;;11.20;100.00
2397;BME280;1209;48.410;9.054;2023-04-23T05:17:34;95698.63;;;11.15;100.00
2397;BME280;1209;48.410;9.054;2023-04-23T05:19:59;95697.84;;;11.21;100.00
2397;BME280;1209;48.410;9.054;2023-04-23T05:22:25;95691.97;;;11.13;100.00
2397;BME280;1209;48.410;9.054;2023-04-23T05:24:51;95690.94;;;11.07;100.00
2397;BME280;1209;48.410;9.054;2023-04-23T05:27:17;95687.19;;;11.23;100.00
2397;BME280;1209;48.410;9.054;2023-04-23T05:29:42;95692.66;;;11.28;100.00
2397;BME280;1209;48.410;9.054;2023-04-23T05:32:08;95691.25;;;11.32;100.00
2397;BME280;1209;48.410;9.054;2023-04-23T05:34:33;95683.88;;;11.35;100.00
2397;BME280;1209;48.410;9.054;2023-04-23T05:36:59;95675.78;;;11.30;100.00
2397;BME280;1209;48.410;9.054;2023-04-23T05:39:24;95683.47;;;11.39;100.00
2397;BME280;1209;48.410;9.054;2023-04-23T05:41:50;95683.13;;;11.48;100.00
2397;BME280;1209;48.410;9.054;2023-04-23T05:44:15;95691.97;;;11.47;100.00
2397;BME280;1209;48.410;9.054;2023-04-23T05:46:40;95687.16;;;11.51;100.00
2397;BME280;1209;48.410;9.054;2023-04-23T05:49:06;95678.53;;;11.57;100.00
2397;BME280;1209;48.410;9.054;2023-04-23T05:51:31;95678.34;;;11.58;100.00
2397;BME280;1209;48.410;9.054;2023-04-23T05:53:56;95678.91;;;11.54;100.00
2397;BME280;1209;48.410;9.054;2023-04-23T05:56:22;95677.53;;;11.58;100.00
2397;BME280;1209;48.410;9.054;2023-04-23T05:58:47;95683.97;;;11.62;100.00
2397;BME280;1209;48.410;9.054;2023-04-23T06:01:12;95680.78;;;11.66;100.00
2397;BME280;1209;48.410;9.054;2023-04-23T06:03:38;95683.25;;;11.81;100.00
2397;BME280;1209;48.410;9.054;2023-04-23T06:06:06;95692.59;;;11.97;100.00
2397;BME280;1209;48.410;9.054;2023-04-23T06:08:31;95695.44;;;12.09;100.00
2397;BME280;1209;48.410;9.054;2023-04-23T06:10:56;95687.41;;;12.23;100.00
2397;BME280;1209;48.410;9.054;2023-04-23T06:13:22;95674.75;;;12.34;100.00
2397;BME280;1209;48.410;9.054;2023-04-23T06:15:48;95682.00;;;12.38;100.00
2397;BME280;1209;48.410;9.054;2023-04-23T06:18:13;95673.97;;;12.53;100.00
2397;BME280;1209;48.410;9.054;2023-04-23T06:20:38;95675.97;;;12.71;100.00
2397;BME280;1209;48.410;9.054;2023-04-23T06:23:04;95674.38;;;12.83;100.00
2397;BME280;1209;48.410;9.054;2023-04-23T06:25:30;95670.09;;;13.08;100.00
2397;BME280;1209;48.410;9.054;2023-04-23T06:27:55;95679.19;;;12.99;100.00
2397;BME280;1209;48.410;9.054;2023-04-23T06:30:22;95677.75;;;13.03;100.00
2397;BME280;1209;48.410;9.054;2023-04-23T06:32:49;95680.00;;;13.00;100.00
2397;BME280;1209;48.410;9.054;2023-04-23T06:35:14;95695.09;;;13.17;100.00
2397;BME280;1209;48.410;9.054;2023-04-23T06:37:39;95687.06;;;13.26;100.00
2397;BME280;1209;48.410;9.054;2023-04-23T06:40:05;95694.28;;;13.23;100.00
2397;BME280;1209;48.410;9.054;2023-04-23T06:42:31;95679.97;;;13.19;100.00
2397;BME280;1209;48.410;9.054;2023-04-23T06:44:56;95684.22;;;13.20;100.00
2397;BME280;1209;48.410;9.054;2023-04-23T06:47:23;95680.19;;;13.31;100.00
2397;BME280;1209;48.410;9.054;2023-04-23T06:49:49;95682.16;;;13.42;100.00
2397;BME280;1209;48.410;9.054;2023-04-23T06:52:15;95675.91;;;13.37;100.00
2397;BME280;1209;48.410;9.054;2023-04-23T06:54:40;95665.06;;;13.27;100.00
2397;BME280;1209;48.410;9.054;2023-04-23T06:57:05;95671.09;;;13.20;100.00
2397;BME280;1209;48.410;9.054;2023-04-23T06:59:31;95679.97;;;13.19;100.00
2397;BME280;1209;48.410;9.054;2023-04-23T07:01:56;95675.53;;;13.33;100.00
2397;BME280;1209;48.410;9.054;2023-04-23T07:04:22;95670.25;;;13.46;100.00
2397;BME280;1209;48.410;9.054;2023-04-23T07:06:47;95672.16;;;13.77;100.00
2397;BME280;1209;48.410;9.054;2023-04-23T07:09:12;95668.38;;;14.05;100.00
2397;BME280;1209;48.410;9.054;2023-04-23T07:11:38;95669.81;;;14.32;100.00
2397;BME280;1209;48.410;9.054;2023-04-23T07:14:03;95666.19;;;13.95;100.00
2397;BME280;1209;48.410;9.054;2023-04-23T07:16:28;95663.13;;;14.05;100.00
2397;BME280;1209;48.410;9.054;2023-04-23T07:18:58;95661.22;;;14.18;100.00
2397;BME280;1209;48.410;9.054;2023-04-23T07:21:23;95666.03;;;13.90;100.00
2397;BME280;1209;48.410;9.054;2023-04-23T07:23:52;95661.88;;;14.07;100.00
2397;BME280;1209;48.410;9.054;2023-04-23T07:26:18;95662.13;;;14.37;100.00
2397;BME280;1209;48.410;9.054;2023-04-23T07:28:43;95650.97;;;14.42;100.00
2397;BME280;1209;48.410;9.054;2023-04-23T07:31:11;95649.91;;;14.49;100.00
2397;BME280;1209;48.410;9.054;2023-04-23T07:33:36;95641.44;;;14.16;100.00
2397;BME280;1209;48.410;9.054;2023-04-23T07:36:02;95646.88;;;14.14;100.00
2397;BME280;1209;48.410;9.054;2023-04-23T07:38:27;95643.72;;;14.37;100.00
2397;BME280;1209;48.410;9.054;2023-04-23T07:40:52;95626.72;;;14.46;100.00
2397;BME280;1209;48.410;9.054;2023-04-23T07:43:18;95631.59;;;14.36;100.00
2397;BME280;1209;48.410;9.054;2023-04-23T07:45:43;95644.66;;;14.49;100.00
2397;BME280;1209;48.410;9.054;2023-04-23T07:48:08;95647.19;;;14.63;100.00
2397;BME280;1209;48.410;9.054;2023-04-23T07:50:34;95643.16;;;14.60;100.00
2397;BME280;1209;48.410;9.054;2023-04-23T07:52:59;95648.84;;;14.82;100.00
2397;BME280;1209;48.410;9.054;2023-04-23T07:55:24;95642.69;;;15.13;100.00
2397;BME280;1209;48.410;9.054;2023-04-23T07:57:50;95649.50;;;15.57;100.00
2397;BME280;1209;48.410;9.054;2023-04-23T08:00:15;95652.53;;;16.09;100.00
2397;BME280;1209;48.410;9.054;2023-04-23T08:02:41;95642.47;;;16.18;100.00
2397;BME280;1209;48.410;9.054;2023-04-23T08:05:07;95642.00;;;16.09;100.00
2397;BME280;1209;48.410;9.054;2023-04-23T08:07:32;95626.63;;;15.76;100.00
2397;BME280;1209;48.410;9.054;2023-04-23T08:09:58;95623.06;;;15.70;100.00
2397;BME280;1209;48.410;9.054;2023-04-23T08:12:27;95627.44;;;15.40;100.00
2397;BME280;1209;48.410;9.054;2023-04-23T08:14:52;95628.75;;;15.31;100.00
2397;BME280;1209;48.410;9.054;2023-04-23T08:17:18;95626.69;;;15.51;100.00
2397;BME280;1209;48.410;9.054;2023-04-23T08:19:43;95630.66;;;15.60;100.00
2397;BME280;1209;48.410;9.054;2023-04-23T08:22:08;95633.56;;;15.34;100.00
2397;BME280;1209;48.410;9.054;2023-04-23T08:24:34;95631.06;;;15.02;100.00
2397;BME280;1209;48.410;9.054;2023-04-23T08:27:00;95621.72;;;15.06;100.00
2397;BME280;1209;48.410;9.054;2023-04-23T08:29:25;95615.34;;;14.96;100.00
2397;BME280;1209;48.410;9.054;2023-04-23T08:31:51;95616.88;;;15.03;100.00
2397;BME280;1209;48.410;9.054;2023-04-23T08:34:16;95609.34;;;14.89;100.00
2397;BME280;1209;48.410;9.054;2023-04-23T08:36:42;95608.94;;;15.28;100.00
2397;BME280;1209;48.410;9.054;2023-04-23T08:39:07;95606.91;;;15.30;100.00
2397;BME280;1209;48.410;9.054;2023-04-23T08:41:38;95609.09;;;15.70;100.00
2397;BME280;1209;48.410;9.054;2023-04-23T08:44:17;95614.69;;;16.03;100.00
2397;BME280;1209;48.410;9.054;2023-04-23T08:46:43;95611.03;;;16.46;100.00
2397;BME280;1209;48.410;9.054;2023-04-23T08:49:18;95607.75;;;16.86;100.00
2397;BME280;1209;48.410;9.054;2023-04-23T08:51:54;95606.72;;;16.98;96.47
2397;BME280;1209;48.410;9.054;2023-04-23T08:54:26;95597.94;;;17.45;99.66
2397;BME280;1209;48.410;9.054;2023-04-23T08:56:56;95599.66;;;17.51;91.94
2397;BME280;1209;48.410;9.054;2023-04-23T08:59:22;95591.69;;;17.62;86.75
2397;BME280;1209;48.410;9.054;2023-04-23T09:01:48;95588.97;;;17.86;99.25
2397;BME280;1209;48.410;9.054;2023-04-23T09:04:14;95582.56;;;18.10;88.29
2397;BME280;1209;48.410;9.054;2023-04-23T09:06:44;95573.28;;;17.39;87.88
2397;BME280;1209;48.410;9.054;2023-04-23T09:09:14;95570.16;;;17.42;88.54
2397;BME280;1209;48.410;9.054;2023-04-23T09:11:40;95574.72;;;18.32;85.43
2397;BME280;1209;48.410;9.054;2023-04-23T09:14:07;95583.72;;;18.48;79.31
2397;BME280;1209;48.410;9.054;2023-04-23T09:16:32;95579.78;;;19.01;83.90
2397;BME280;1209;48.410;9.054;2023-04-23T09:18:58;95581.75;;;19.10;77.40
2397;BME280;1209;48.410;9.054;2023-04-23T09:21:23;95576.06;;;19.02;78.28
2397;BME280;1209;48.410;9.054;2023-04-23T09:23:51;95581.94;;;18.37;77.38
2397;BME280;1209;48.410;9.054;2023-04-23T09:26:21;95578.81;;;17.78;77.77
2397;BME280;1209;48.410;9.054;2023-04-23T09:28:50;95579.66;;;17.03;83.24
2397;BME280;1209;48.410;9.054;2023-04-23T09:31:22;95574.16;;;16.93;88.11
2397;BME280;1209;48.410;9.054;2023-04-23T09:33:52;95567.38;;;17.09;90.37
2397;BME280;1209;48.410;9.054;2023-04-23T09:36:20;95562.91;;;17.49;86.14
2397;BME280;1209;48.410;9.054;2023-04-23T09:38:46;95556.53;;;17.74;81.24
2397;BME280;1209;48.410;9.054;2023-04-23T09:41:25;95551.59;;;17.77;86.00
2397;BME280;1209;48.410;9.054;2023-04-23T09:43:56;95553.94;;;17.90;79.28
2397;BME280;1209;48.410;9.054;2023-04-23T09:46:41;95550.94;;;18.49;82.31
2397;BME280;1209;48.410;9.054;2023-04-23T09:49:08;95552.50;;;18.83;74.32
2397;BME280;1209;48.410;9.054;2023-04-23T09:51:41;95545.94;;;18.86;74.38
2397;BME280;1209;48.410;9.054;2023-04-23T09:54:20;95545.84;;;19.19;76.94
2397;BME280;1209;48.410;9.054;2023-04-23T09:56:51;95542.78;;;19.49;69.16
2397;BME280;1209;48.410;9.054;2023-04-23T09:59:25;95534.88;;;20.03;65.83
2397;BME280;1209;48.410;9.054;2023-04-23T10:01:52;95538.72;;;20.50;66.43
2397;BME280;1209;48.410;9.054;2023-04-23T10:04:19;95537.66;;;20.19;74.86
2397;BME280;1209;48.410;9.054;2023-04-23T10:06:56;95529.38;;;20.10;80.90
2397;BME280;1209;48.410;9.054;2023-04-23T10:09:22;95519.72;;;19.72;81.22
2397;BME280;1209;48.410;9.054;2023-04-23T10:11:52;95516.66;;;19.36;76.31
2397;BME280;1209;48.410;9.054;2023-04-23T10:14:22;95513.56;;;18.79;75.81
2397;BME280;1209;48.410;9.054;2023-04-23T10:16:51;95509.44;;;18.66;78.43
2397;BME280;1209;48.410;9.054;2023-04-23T10:19:18;95505.25;;;18.70;82.31
2397;BME280;1209;48.410;9.054;2023-04-23T10:21:48;95505.69;;;18.84;79.94
2397;BME280;1209;48.410;9.054;2023-04-23T10:24:16;95502.88;;;18.18;80.60
2397;BME280;1209;48.410;9.054;2023-04-23T10:26:44;95496.03;;;17.89;85.34
2397;BME280;1209;48.410;9.054;2023-04-23T10:29:12;95488.69;;;18.24;83.17
2397;BME280;1209;48.410;9.054;2023-04-23T10:31:39;95490.84;;;18.28;81.93
2397;BME280;1209;48.410;9.054;2023-04-23T10:34:06;95492.63;;;18.05;88.99
2397;BME280;1209;48.410;9.054;2023-04-23T10:36:32;95487.78;;;18.36;86.63
2397;BME280;1209;48.410;9.054;2023-04-23T10:38:57;95484.28;;;18.47;83.08
2397;BME280;1209;48.410;9.054;2023-04-23T10:41:34;95485.06;;;18.64;85.50
2397;BME280;1209;48.410;9.054;2023-04-23T10:44:02;95468.50;;;18.35;82.59
2397;BME280;1209;48.410;9.054;2023-04-23T10:46:29;95469.66;;;18.61;79.50
2397;BME280;1209;48.410;9.054;2023-04-23T10:49:14;95461.56;;;18.90;85.30
2397;BME280;1209;48.410;9.054;2023-04-23T10:51:41;95466.72;;;18.58;82.47
2397;BME280;1209;48.410;9.054;2023-04-23T10:54:09;95467.75;;;18.40;83.13
2397;BME280;1209;48.410;9.054;2023-04-23T10:56:39;95471.44;;;18.39;88.52
2397;BME280;1209;48.410;9.054;2023-04-23T10:59:07;95460.91;;;18.77;83.36
2397;BME280;1209;48.410;9.054;2023-04-23T11:01:33;95458.56;;;19.03;78.81
2397;BME280;1209;48.410;9.054;2023-04-23T11:03:58;95449.84;;;19.51;80.04
2397;BME280;1209;48.410;9.054;2023-04-23T11:09:28;95448.19;;;18.96;77.27
2397;BME280;1209;48.410;9.054;2023-04-23T11:11:54;95446.88;;;18.77;76.58
2397;BME280;1209;48.410;9.054;2023-04-23T11:14:46;95438.34;;;19.40;74.84
2397;BME280;1209;48.410;9.054;2023-04-23T11:17:13;95436.78;;;19.71;70.22
2397;BME280;1209;48.410;9.054;2023-04-23T11:19:40;95441.34;;;20.08;77.13
2397;BME280;1209;48.410;9.054;2023-04-23T11:22:12;95433.47;;;19.86;70.16
2397;BME280;1209;48.410;9.054;2023-04-23T11:24:42;95430.09;;;19.64;68.81
2397;BME280;1209;48.410;9.054;2023-04-23T11:27:13;95429.16;;;20.12;69.75
2397;BME280;1209;48.410;9.054;2023-04-23T11:29:42;95422.19;;;20.01;69.26
2397;BME280;1209;48.410;9.054;2023-04-23T11:32:08;95418.63;;;20.22;70.76
2397;BME280;1209;48.410;9.054;2023-04-23T11:34:36;95420.75;;;20.67;66.31
2397;BME280;1209;48.410;9.054;2023-04-23T11:37:03;95414.03;;;20.50;71.25
2397;BME280;1209;48.410;9.054;2023-04-23T11:39:29;95411.34;;;20.97;71.98
2397;BME280;1209;48.410;9.054;2023-04-23T11:41:54;95408.69;;;21.07;65.24
2397;BME280;1209;48.410;9.054;2023-04-23T11:44:21;95407.72;;;21.28;66.26
2397;BME280;1209;48.410;9.054;2023-04-23T11:46:48;95399.28;;;21.97;66.23
2397;BME280;1209;48.410;9.054;2023-04-23T11:49:14;95406.47;;;22.07;61.84
2397;BME280;1209;48.410;9.054;2023-04-23T11:51:42;95401.16;;;22.07;58.51
2397;BME280;1209;48.410;9.054;2023-04-23T11:54:08;95391.28;;;21.31;60.08
2397;BME280;1209;48.410;9.054;2023-04-23T11:56:36;95398.59;;;21.04;66.01
2397;BME280;1209;48.410;9.054;2023-04-23T11:59:02;95387.00;;;21.25;60.75
2397;BME280;1209;48.410;9.054;2023-04-23T12:01:48;95387.28;;;22.20;59.83
2397;BME280;1209;48.410;9.054;2023-04-23T12:04:22;95371.47;;;22.65;59.29
2397;BME280;1209;48.410;9.054;2023-04-23T12:06:49;95372.78;;;22.67;57.76
2397;BME280;1209;48.410;9.054;2023-04-23T12:09:16;95369.50;;;21.70;60.75
2397;BME280;1209;48.410;9.054;2023-04-23T12:11:42;95372.38;;;21.23;61.86
2397;BME280;1209;48.410;9.054;2023-04-23T12:14:09;95369.66;;;21.02;62.46
2397;BME280;1209;48.410;9.054;2023-04-23T12:16:45;95353.78;;;20.40;62.25
2397;BME280;1209;48.410;9.054;2023-04-23T12:19:16;95354.88;;;20.02;63.75
2397;BME280;1209;48.410;9.054;2023-04-23T12:21:50;95356.94;;;19.58;66.50
2397;BME280;1209;48.410;9.054;2023-04-23T12:24:19;95357.38;;;19.49;70.59
2397;BME280;1209;48.410;9.054;2023-04-23T12:26:48;95353.50;;;19.30;73.00
2397;BME280;1209;48.410;9.054;2023-04-23T12:29:16;95354.00;;;19.27;71.28
2397;BME280;1209;48.410;9.054;2023-04-23T12:31:42;95345.38;;;19.10;70.05
2397;BME280;1209;48.410;9.054;2023-04-23T12:34:09;95348.72;;;19.00;71.14
2397;BME280;1209;48.410;9.054;2023-04-23T12:36:37;95342.28;;;19.82;71.25
2397;BME280;1209;48.410;9.054;2023-04-23T12:41:56;95341.06;;;21.45;61.23
2397;BME280;1209;48.410;9.054;2023-04-23T12:44:27;95332.78;;;22.18;60.61
2397;BME280;1209;48.410;9.054;2023-04-23T12:47:00;95333.06;;;22.11;60.22
2397;BME280;1209;48.410;9.054;2023-04-23T12:49:30;95332.13;;;22.56;56.29
2397;BME280;1209;48.410;9.054;2023-04-23T12:51:56;95327.81;;;22.66;59.99
2397;BME280;1209;48.410;9.054;2023-04-23T12:54:24;95332.84;;;21.82;58.53
2397;BME280;1209;48.410;9.054;2023-04-23T12:56:50;95323.53;;;21.29;60.71
2397;BME280;1209;48.410;9.054;2023-04-23T12:59:18;95313.97;;;21.53;59.93
2397;BME280;1209;48.410;9.054;2023-04-23T13:01:44;95317.75;;;22.52;60.27
2397;BME280;1209;48.410;9.054;2023-04-23T13:04:09;95315.03;;;23.22;57.71
2397;BME280;1209;48.410;9.054;2023-04-23T13:06:35;95310.75;;;21.66;60.35
2397;BME280;1209;48.410;9.054;2023-04-23T13:09:00;95313.19;;;21.32;63.97
2397;BME280;1209;48.410;9.054;2023-04-23T13:11:32;95305.69;;;20.99;63.76
2397;BME280;1209;48.410;9.054;2023-04-23T13:13:58;95303.81;;;20.99;64.43
2397;BME280;1209;48.410;9.054;2023-04-23T13:16:23;95293.72;;;21.98;63.84
2397;BME280;1209;48.410;9.054;2023-04-23T13:18:49;95287.56;;;20.75;63.14